createdAt,value
2022-10-05T00:01:45.999Z,95.91
2022-10-05T00:04:15.532Z,96.79
2022-10-05T00:06:47.689Z,96.24
2022-10-05T00:09:23.085Z,96.24
2022-10-05T00:11:51.123Z,96.67
2022-10-05T00:14:31.594Z,96.08
2022-10-05T00:16:58.350Z,95.99
2022-10-05T00:19:33.051Z,96.26
2022-10-05T00:22:09.552Z,96.13
2022-10-05T00:24:36.176Z,96.73
2022-10-05T00:27:18.131Z,97.26
2022-10-05T00:29:46.185Z,98.29
2022-10-05T00:32:13.032Z,97.77
2022-10-05T00:34:39.734Z,97.61
2022-10-05T00:37:06.627Z,97.68
2022-10-05T00:39:36.049Z,97.92
2022-10-05T00:42:21.300Z,98.06
2022-10-05T00:45:14.842Z,98.38
2022-10-05T00:47:50.775Z,98.62
2022-10-05T00:50:47.281Z,98.67
2022-10-05T00:53:44.906Z,98.60
2022-10-05T00:56:37.065Z,99.05
2022-10-05T00:59:22.728Z,98.93
2022-10-05T01:02:20.217Z,98.48
2022-10-05T01:05:09.414Z,97.82
2022-10-05T01:07:52.065Z,98.34
2022-10-05T01:10:27.772Z,98.14
2022-10-05T01:12:54.373Z,98.69
2022-10-05T01:15:54.322Z,98.53
2022-10-05T01:18:45.331Z,99.14
2022-10-05T01:21:20.468Z,98.91
2022-10-05T01:24:20.480Z,98.56
2022-10-05T01:27:09.512Z,98.52
2022-10-05T01:30:06.962Z,98.51
2022-10-05T01:32:48.414Z,98.34
2022-10-05T01:35:29.514Z,98.62
2022-10-05T01:38:01.311Z,98.83
2022-10-05T01:40:36.567Z,98.90
2022-10-05T01:43:09.207Z,98.77
2022-10-05T01:45:38.782Z,99.02
2022-10-05T01:48:17.359Z,99.60
2022-10-05T01:51:02.159Z,98.46
2022-10-05T01:53:37.950Z,99.02
2022-10-05T01:56:30.304Z,98.84
2022-10-05T01:59:29.751Z,98.74
2022-10-05T02:02:05.094Z,98.47
2022-10-05T02:05:01.517Z,98.80
2022-10-05T02:07:46.779Z,99.54
2022-10-05T02:10:37.378Z,99.38
2022-10-05T02:13:12.818Z,100.00
2022-10-05T02:15:46.303Z,99.97
2022-10-05T02:18:28.898Z,99.93
2022-10-05T02:20:59.099Z,99.90
2022-10-05T02:23:32.912Z,100.00
2022-10-05T02:26:01.514Z,99.73
2022-10-05T02:28:55.198Z,99.07
2022-10-05T02:31:29.908Z,98.98
2022-10-05T02:34:29.134Z,99.63
2022-10-05T02:37:36.107Z,100.00
2022-10-05T02:40:24.968Z,100.00
2022-10-05T02:43:00.255Z,100.00
2022-10-05T02:45:34.200Z,99.50
2022-10-05T02:48:31.659Z,99.03
2022-10-05T02:51:10.513Z,99.43
2022-10-05T02:54:00.979Z,100.00
2022-10-05T02:57:04.603Z,99.89
2022-10-05T02:59:46.229Z,99.88
2022-10-05T03:02:23.818Z,99.95
2022-10-05T03:05:14.373Z,99.87
2022-10-05T03:08:03.073Z,100.00
2022-10-05T03:10:48.957Z,99.42
2022-10-05T03:13:28.942Z,99.80
2022-10-05T03:16:22.782Z,100.00
2022-10-05T03:18:55.555Z,100.00
2022-10-05T03:21:26.922Z,100.00
2022-10-05T03:24:00.326Z,100.00
2022-10-05T03:26:33.015Z,100.00
2022-10-05T03:29:13.127Z,100.00
2022-10-05T03:31:46.423Z,100.00
2022-10-05T03:34:24.502Z,100.00
2022-10-05T03:37:03.571Z,100.00
2022-10-05T03:39:52.056Z,100.00
2022-10-05T03:42:29.553Z,100.00
2022-10-05T03:45:16.389Z,100.00
2022-10-05T03:47:52.139Z,100.00
2022-10-05T03:50:51.144Z,100.00
2022-10-05T03:53:30.046Z,100.00
2022-10-05T03:56:18.262Z,100.00
2022-10-05T03:59:08.208Z,100.00
2022-10-05T04:01:58.857Z,100.00
2022-10-05T04:04:33.115Z,100.00
2022-10-05T04:07:01.504Z,100.00
2022-10-05T04:09:29.153Z,100.00
2022-10-05T04:12:27.353Z,100.00
2022-10-05T04:15:04.037Z,100.00
2022-10-05T04:17:38.137Z,100.00
2022-10-05T04:20:22.544Z,100.00
2022-10-05T04:22:56.261Z,100.00
2022-10-05T04:25:29.197Z,100.00
2022-10-05T04:28:21.511Z,100.00
2022-10-05T04:30:53.072Z,100.00
2022-10-05T04:33:21.282Z,100.00
2022-10-05T04:36:03.203Z,100.00
2022-10-05T04:38:56.471Z,100.00
2022-10-05T04:41:40.024Z,100.00
2022-10-05T04:44:09.727Z,100.00
2022-10-05T04:46:55.150Z,100.00
2022-10-05T04:49:42.130Z,100.00
2022-10-05T04:52:48.933Z,100.00
2022-10-05T04:55:28.067Z,100.00
2022-10-05T04:58:05.337Z,100.00
2022-10-05T05:00:40.233Z,100.00
2022-10-05T05:03:10.216Z,100.00
2022-10-05T05:05:53.026Z,100.00
2022-10-05T05:08:37.083Z,100.00
2022-10-05T05:11:17.427Z,100.00
2022-10-05T05:14:19.701Z,100.00
2022-10-05T05:17:02.602Z,100.00
2022-10-05T05:20:07.345Z,100.00
2022-10-05T05:22:52.234Z,100.00
2022-10-05T05:25:39.201Z,100.00
2022-10-05T05:28:27.945Z,100.00
2022-10-05T05:31:15.713Z,100.00
2022-10-05T05:34:02.897Z,100.00
2022-10-05T05:36:48.608Z,100.00
2022-10-05T05:39:18.482Z,100.00
2022-10-05T05:41:58.019Z,100.00
2022-10-05T05:44:24.977Z,100.00
2022-10-05T05:47:14.201Z,100.00
2022-10-05T05:49:54.871Z,100.00
2022-10-05T05:52:30.412Z,100.00
2022-10-05T05:55:04.349Z,100.00
2022-10-05T05:57:39.023Z,100.00
2022-10-05T06:00:15.283Z,100.00
2022-10-05T06:03:00.845Z,100.00
2022-10-05T06:05:46.086Z,100.00
2022-10-05T06:08:29.030Z,100.00
2022-10-05T06:11:18.976Z,100.00
2022-10-05T06:13:46.953Z,100.00
2022-10-05T06:16:30.031Z,100.00
2022-10-05T06:19:08.368Z,100.00
2022-10-05T06:21:42.370Z,100.00
2022-10-05T06:24:18.171Z,100.00
2022-10-05T06:27:06.008Z,100.00
2022-10-05T06:30:09.883Z,100.00
2022-10-05T06:32:51.693Z,100.00
2022-10-05T06:35:54.459Z,100.00
2022-10-05T06:39:04.474Z,100.00
2022-10-05T06:41:34.054Z,100.00
2022-10-05T06:44:09.174Z,100.00
2022-10-05T06:46:49.598Z,100.00
2022-10-05T06:50:16.228Z,100.00
2022-10-05T06:53:43.088Z,100.00
2022-10-05T06:56:38.192Z,100.00
2022-10-05T06:59:27.816Z,100.00
2022-10-05T07:02:00.635Z,100.00
2022-10-05T07:04:59.539Z,100.00
2022-10-05T07:07:33.040Z,100.00
2022-10-05T07:10:08.708Z,100.00
2022-10-05T07:12:58.810Z,100.00
2022-10-05T07:15:44.835Z,100.00
2022-10-05T07:18:58.789Z,100.00
2022-10-05T07:21:58.662Z,100.00
2022-10-05T07:24:42.734Z,99.52
2022-10-05T07:27:25.713Z,100.00
2022-10-05T07:30:12.080Z,100.00
2022-10-05T07:33:19.007Z,98.95
2022-10-05T07:36:04.718Z,98.88
2022-10-05T07:38:45.622Z,97.74
2022-10-05T07:41:25.274Z,97.14
2022-10-05T07:44:02.321Z,96.46
2022-10-05T07:46:40.108Z,97.86
2022-10-05T07:49:44.611Z,96.85
2022-10-05T07:52:34.679Z,96.56
2022-10-05T07:55:01.970Z,96.42
2022-10-05T07:57:53.517Z,96.83
2022-10-05T08:00:23.808Z,96.26
2022-10-05T08:02:59.149Z,97.69
2022-10-05T08:05:36.121Z,97.17
2022-10-05T08:08:18.182Z,96.58
2022-10-05T08:10:59.039Z,97.39
2022-10-05T08:13:37.758Z,95.25
2022-10-05T08:16:12.842Z,94.90
2022-10-05T08:19:27.702Z,94.13
2022-10-05T08:22:09.438Z,95.45
2022-10-05T08:24:57.601Z,95.57
2022-10-05T08:27:46.174Z,94.50
2022-10-05T08:30:16.338Z,94.74
2022-10-05T08:33:00.417Z,94.02
2022-10-05T08:35:43.755Z,94.67
2022-10-05T08:38:19.734Z,93.96
2022-10-05T08:41:08.224Z,94.00
2022-10-05T08:44:19.110Z,93.67
2022-10-05T08:46:51.462Z,93.84
2022-10-05T08:49:42.930Z,93.40
2022-10-05T08:52:54.319Z,93.39
2022-10-05T08:55:37.546Z,92.49
2022-10-05T08:58:14.193Z,92.84
2022-10-05T09:00:59.122Z,92.05
2022-10-05T09:03:36.846Z,92.04
2022-10-05T09:06:27.884Z,93.14
2022-10-05T09:09:36.564Z,91.73
2022-10-05T09:12:18.375Z,92.31
2022-10-05T09:15:24.258Z,92.01
2022-10-05T09:18:22.947Z,91.71
2022-10-05T09:21:05.297Z,90.76
2022-10-05T09:23:39.188Z,91.18
2022-10-05T09:26:44.689Z,90.81
2022-10-05T09:29:23.617Z,90.76
2022-10-05T09:32:17.542Z,89.69
2022-10-05T09:35:06.046Z,89.25
2022-10-05T09:37:38.881Z,90.97
2022-10-05T09:40:36.097Z,89.63
2022-10-05T09:43:25.593Z,88.42
2022-10-05T09:46:11.002Z,88.66
2022-10-05T09:49:13.127Z,87.47
2022-10-05T09:52:13.938Z,87.74
2022-10-05T09:55:06.526Z,86.81
2022-10-05T09:58:05.574Z,86.74
2022-10-05T10:00:41.247Z,87.28
2022-10-05T10:03:42.956Z,86.49
2022-10-05T10:06:33.171Z,86.17
2022-10-05T10:09:50.851Z,86.52
2022-10-05T10:12:23.161Z,86.07
2022-10-05T10:15:27.497Z,86.41
2022-10-05T10:18:03.273Z,85.86
2022-10-05T10:20:48.143Z,86.62
2022-10-05T10:23:32.542Z,86.34
2022-10-05T10:26:24.214Z,86.40
2022-10-05T10:29:09.317Z,85.40
2022-10-05T10:31:54.295Z,84.71
2022-10-05T10:34:58.337Z,84.16
2022-10-05T10:37:53.147Z,84.24
2022-10-05T10:41:04.264Z,85.18
2022-10-05T10:43:51.976Z,84.30
2022-10-05T10:46:53.048Z,83.61
2022-10-05T10:49:50.011Z,82.15
2022-10-05T10:52:36.626Z,83.18
2022-10-05T10:55:27.602Z,80.97
2022-10-05T10:58:19.729Z,82.05
2022-10-05T11:01:11.114Z,81.91
2022-10-05T11:03:49.801Z,81.17
2022-10-05T11:06:44.026Z,82.60
2022-10-05T11:09:16.745Z,80.07
2022-10-05T11:12:04.574Z,81.40
2022-10-05T11:14:43.631Z,80.15
2022-10-05T11:17:38.294Z,81.50
2022-10-05T11:20:23.160Z,80.82
2022-10-05T11:23:26.453Z,79.60
2022-10-05T11:26:14.632Z,80.97
2022-10-05T11:29:11.594Z,78.78
2022-10-05T11:32:12.362Z,76.73
2022-10-05T11:34:58.320Z,77.78
2022-10-05T11:37:46.741Z,78.05
2022-10-05T11:41:02.223Z,78.19
2022-10-05T11:43:43.708Z,78.09
2022-10-05T11:46:16.581Z,77.19
2022-10-05T11:48:53.325Z,78.38
2022-10-05T11:51:20.761Z,77.67
2022-10-05T11:54:09.929Z,75.58
2022-10-05T11:56:42.070Z,78.09
2022-10-05T11:59:39.495Z,76.94
2022-10-05T12:02:28.018Z,76.91
2022-10-05T12:05:11.245Z,75.91
2022-10-05T12:07:43.272Z,76.21
2022-10-05T12:10:29.216Z,74.53
2022-10-05T12:13:25.428Z,76.72
2022-10-05T12:15:52.644Z,74.84
2022-10-05T12:18:32.869Z,76.95
2022-10-05T12:21:06.997Z,74.69
2022-10-05T12:23:50.400Z,75.65
2022-10-05T12:26:31.788Z,75.29
2022-10-05T12:29:51.037Z,75.75
2022-10-05T12:32:40.693Z,75.06
2022-10-05T12:35:47.381Z,73.75
2022-10-05T12:38:46.465Z,72.91
2022-10-05T12:41:36.492Z,73.13
2022-10-05T12:44:32.219Z,74.32
2022-10-05T12:47:23.852Z,72.31
2022-10-05T12:50:19.330Z,71.15
2022-10-05T12:53:14.997Z,71.76
2022-10-05T12:56:03.611Z,68.58
2022-10-05T12:58:39.846Z,70.16
2022-10-05T13:01:09.782Z,68.36
2022-10-05T13:03:38.203Z,67.88
2022-10-05T13:06:39.188Z,66.52
2022-10-05T13:09:06.615Z,67.55
2022-10-05T13:11:42.996Z,66.33
2022-10-05T13:14:12.651Z,65.38
2022-10-05T13:17:03.947Z,66.12
2022-10-05T13:19:40.378Z,65.04
2022-10-05T13:23:10.629Z,64.59
2022-10-05T13:26:01.095Z,64.86
2022-10-05T13:28:53.427Z,65.75
2022-10-05T13:31:32.538Z,64.28
2022-10-05T13:34:21.997Z,65.20
2022-10-05T13:37:20.419Z,64.28
2022-10-05T13:40:01.104Z,64.41
2022-10-05T13:42:55.079Z,62.67
2022-10-05T13:45:43.571Z,62.89
2022-10-05T13:48:46.105Z,65.53
2022-10-05T13:51:34.072Z,63.33
2022-10-05T13:54:17.059Z,64.69
2022-10-05T13:57:07.732Z,64.75
2022-10-05T14:00:05.567Z,64.83
2022-10-05T14:02:50.397Z,65.68
2022-10-05T14:05:39.055Z,64.88
2022-10-05T14:08:41.572Z,66.29
2022-10-05T14:11:53.892Z,64.30
2022-10-05T14:14:29.573Z,64.68
2022-10-05T14:17:14.724Z,64.59
2022-10-05T14:19:47.813Z,64.22
2022-10-05T14:22:52.323Z,62.75
2022-10-05T14:26:10.790Z,65.71
2022-10-05T14:33:30.909Z,64.89
2022-10-05T14:36:07.915Z,64.21
2022-10-05T14:39:21.032Z,63.27
2022-10-05T14:42:34.474Z,62.80
2022-10-05T14:45:21.219Z,63.80
2022-10-05T14:51:53.923Z,65.04
2022-10-05T14:54:49.920Z,65.14
2022-10-05T14:58:07.570Z,63.69
2022-10-05T15:01:10.303Z,63.94
2022-10-05T15:04:16.175Z,62.89
2022-10-05T15:07:52.089Z,63.24
2022-10-05T15:10:55.890Z,60.94
2022-10-05T15:14:15.512Z,60.58
2022-10-05T15:17:16.887Z,62.39
2022-10-05T15:20:47.225Z,63.52
2022-10-05T15:23:48.378Z,63.05
2022-10-05T15:27:01.661Z,64.77
2022-10-05T15:30:29.019Z,61.56
2022-10-05T15:33:34.820Z,61.59
2022-10-05T15:36:59.360Z,63.37
2022-10-05T15:39:52.316Z,65.05
2022-10-05T15:42:52.949Z,66.48
2022-10-05T15:46:20.590Z,65.73
2022-10-05T15:49:05.105Z,65.44
2022-10-05T15:52:35.240Z,65.01
2022-10-05T15:56:12.134Z,65.14
2022-10-05T15:59:06.199Z,67.55
2022-10-05T16:01:58.878Z,65.43
2022-10-05T16:05:24.055Z,64.71
2022-10-05T16:08:45.938Z,63.52
2022-10-05T16:12:03.271Z,63.65
2022-10-05T16:15:08.534Z,62.15
2022-10-05T16:18:36.657Z,63.30
2022-10-05T16:21:42.859Z,63.48
2022-10-05T16:24:43.795Z,65.35
2022-10-05T16:31:44.634Z,65.43
2022-10-05T16:35:30.668Z,64.26
2022-10-05T16:38:41.430Z,64.80
2022-10-05T16:44:35.023Z,65.93
2022-10-05T16:47:27.729Z,66.42
2022-10-05T16:50:17.247Z,66.35
2022-10-05T16:52:46.700Z,66.49
2022-10-05T16:55:20.141Z,66.92
2022-10-05T16:57:57.626Z,67.70
2022-10-05T17:00:42.143Z,68.09
2022-10-05T17:03:27.684Z,67.25
2022-10-05T17:06:22.350Z,67.68
2022-10-05T17:09:08.614Z,68.39
2022-10-05T17:11:59.190Z,68.44
2022-10-05T17:15:01.203Z,67.64
2022-10-05T17:18:04.788Z,69.22
2022-10-05T17:20:42.777Z,69.22
2022-10-05T17:23:36.255Z,70.01
2022-10-05T17:26:36.540Z,71.14
2022-10-05T17:29:22.048Z,70.95
2022-10-05T17:32:28.917Z,71.86
2022-10-05T17:35:18.130Z,71.86
2022-10-05T17:38:26.284Z,72.94
2022-10-05T17:41:09.575Z,72.51
2022-10-05T17:44:35.010Z,72.92
2022-10-05T17:48:01.312Z,73.29
2022-10-05T17:51:33.991Z,73.96
2022-10-05T17:54:45.706Z,74.00
2022-10-05T17:57:35.259Z,74.74
2022-10-05T18:00:47.098Z,75.73
2022-10-05T18:03:54.006Z,75.55
2022-10-05T18:06:37.184Z,75.86
2022-10-05T18:09:22.689Z,76.00
2022-10-05T18:12:48.359Z,76.34
2022-10-05T18:15:58.507Z,76.50
2022-10-05T18:18:36.983Z,76.11
2022-10-05T18:21:35.050Z,77.10
2022-10-05T18:24:33.661Z,78.02
2022-10-05T18:27:30.561Z,78.33
2022-10-05T18:30:32.180Z,78.08
2022-10-05T18:36:40.427Z,78.25
2022-10-05T18:40:35.007Z,78.63
2022-10-05T18:43:32.469Z,79.03
2022-10-05T18:46:47.959Z,80.04
2022-10-05T18:50:07.683Z,79.03
2022-10-05T18:53:23.810Z,79.26
2022-10-05T18:56:29.647Z,80.04
2022-10-05T18:59:35.699Z,80.72
2022-10-05T19:06:13.385Z,79.66
2022-10-05T19:09:27.847Z,79.73
2022-10-05T19:12:25.701Z,79.62
2022-10-05T19:15:24.086Z,81.04
2022-10-05T19:18:30.618Z,79.94
2022-10-05T19:21:21.890Z,79.87
2022-10-05T19:24:25.546Z,79.44
2022-10-05T19:27:31.655Z,78.98
2022-10-05T19:30:31.608Z,78.30
2022-10-05T19:33:26.589Z,77.70
2022-10-05T19:36:43.609Z,77.56
2022-10-05T19:39:44.214Z,76.85
2022-10-05T19:42:48.232Z,77.05
2022-10-05T19:45:57.911Z,76.76
2022-10-05T19:48:35.225Z,77.26
2022-10-05T19:51:19.709Z,76.70
2022-10-05T19:54:00.275Z,77.32
2022-10-05T19:56:50.761Z,77.56
2022-10-05T19:59:29.843Z,77.28
2022-10-05T20:02:04.195Z,78.15
2022-10-05T20:04:49.456Z,78.18
2022-10-05T20:07:21.490Z,78.56
2022-10-05T20:09:52.779Z,78.93
2022-10-05T20:12:22.655Z,78.70
2022-10-05T20:15:27.110Z,78.20
2022-10-05T20:18:12.352Z,78.28
2022-10-05T20:20:47.116Z,78.42
2022-10-05T20:23:28.040Z,79.14
2022-10-05T20:26:13.478Z,79.75
2022-10-05T20:28:40.208Z,79.52
2022-10-05T20:31:08.048Z,79.46
2022-10-05T20:33:34.904Z,79.15
2022-10-05T20:36:03.486Z,78.58
2022-10-05T20:38:31.519Z,79.05
2022-10-05T20:40:58.425Z,78.26
2022-10-05T20:43:25.056Z,79.16
2022-10-05T20:45:52.279Z,78.66
2022-10-05T20:48:19.531Z,78.57
2022-10-05T20:50:47.269Z,78.46
2022-10-05T20:53:14.136Z,78.56
2022-10-05T20:55:40.973Z,78.28
2022-10-05T20:58:08.965Z,77.97
2022-10-05T21:00:54.469Z,78.44
2022-10-05T21:03:21.053Z,78.34
2022-10-05T21:05:47.662Z,77.77
2022-10-05T21:08:14.211Z,77.29
2022-10-05T21:10:40.842Z,77.29
2022-10-05T21:13:07.480Z,77.95
2022-10-05T21:15:34.061Z,78.25
2022-10-05T21:18:00.618Z,78.52
2022-10-05T21:20:27.311Z,78.25
2022-10-05T21:22:53.902Z,78.87
2022-10-05T21:25:20.595Z,78.92
2022-10-05T21:27:48.623Z,78.42
2022-10-05T21:30:15.421Z,78.87
2022-10-05T21:32:44.603Z,78.92
2022-10-05T21:35:11.346Z,78.41
2022-10-05T21:37:37.953Z,78.25
2022-10-05T21:40:05.076Z,78.89
2022-10-05T21:42:32.015Z,77.87
2022-10-05T21:44:58.753Z,78.82
2022-10-05T21:47:25.891Z,78.00
2022-10-05T21:49:52.768Z,77.96
2022-10-05T21:52:20.321Z,78.82
2022-10-05T21:54:47.005Z,78.99
2022-10-05T21:57:14.657Z,79.56
2022-10-05T21:59:42.634Z,78.53
2022-10-05T22:02:09.310Z,79.21
2022-10-05T22:04:36.191Z,78.77
2022-10-05T22:07:10.558Z,80.31
2022-10-05T22:09:37.423Z,79.30
2022-10-05T22:12:04.295Z,79.26
2022-10-05T22:14:32.019Z,78.92
2022-10-05T22:16:58.882Z,79.62
2022-10-05T22:19:25.805Z,79.25
2022-10-05T22:21:53.012Z,79.20
2022-10-05T22:24:19.606Z,79.43
2022-10-05T22:26:48.318Z,79.08
2022-10-05T22:29:16.529Z,79.28
2022-10-05T22:31:45.845Z,79.90
2022-10-05T22:34:13.335Z,80.71
2022-10-05T22:36:41.766Z,79.90
2022-10-05T22:39:08.536Z,80.01
2022-10-05T22:41:35.237Z,79.82
2022-10-05T22:44:02.740Z,80.42
2022-10-05T22:46:29.350Z,79.75
2022-10-05T22:48:56.000Z,80.11
2022-10-05T22:51:22.633Z,80.95
2022-10-05T22:53:49.191Z,81.70
2022-10-05T22:56:15.937Z,82.09
2022-10-05T22:58:43.750Z,82.34
2022-10-05T23:01:13.742Z,83.14
2022-10-05T23:03:40.820Z,82.05
2022-10-05T23:06:16.392Z,82.72
2022-10-05T23:08:44.190Z,83.50
2022-10-05T23:11:13.817Z,84.50
2022-10-05T23:13:41.281Z,84.54
2022-10-05T23:16:13.424Z,81.82
2022-10-05T23:18:41.073Z,87.71
2022-10-05T23:21:09.153Z,91.91
2022-10-05T23:23:37.711Z,94.92
2022-10-05T23:26:06.186Z,95.56
2022-10-05T23:28:33.302Z,98.47
2022-10-05T23:31:05.254Z,100.00
2022-10-05T23:33:32.747Z,100.00
2022-10-05T23:35:59.351Z,100.00
2022-10-05T23:38:26.388Z,100.00
2022-10-05T23:40:53.634Z,100.00
2022-10-05T23:43:20.337Z,100.00
2022-10-05T23:45:47.113Z,100.00
2022-10-05T23:48:14.109Z,100.00
2022-10-05T23:50:42.083Z,100.00
2022-10-05T23:53:08.669Z,100.00
2022-10-05T23:55:35.257Z,100.00
2022-10-05T23:58:01.836Z,100.00
